createdAt,value
2018-12-31T00:01:37.747Z,95.93
2018-12-31T00:04:08.388Z,95.95
2018-12-31T00:06:38.873Z,95.84
2018-12-31T00:09:09.509Z,95.88
2018-12-31T00:11:39.989Z,95.99
2018-12-31T00:14:10.477Z,96.06
2018-12-31T00:16:41.026Z,95.99
2018-12-31T00:19:11.496Z,96.00
2018-12-31T00:21:41.983Z,95.77
2018-12-31T00:24:12.522Z,96.01
2018-12-31T00:26:43.033Z,96.16
2018-12-31T00:29:13.530Z,96.03
2018-12-31T00:31:44.070Z,96.18
2018-12-31T00:34:14.554Z,96.32
2018-12-31T00:36:45.125Z,96.53
2018-12-31T00:39:15.788Z,96.64
2018-12-31T00:41:46.370Z,96.55
2018-12-31T00:44:16.916Z,96.62
2018-12-31T00:46:47.459Z,96.65
2018-12-31T00:49:18.058Z,96.77
2018-12-31T00:51:48.627Z,96.86
2018-12-31T00:54:19.215Z,96.80
2018-12-31T00:56:49.730Z,96.85
2018-12-31T00:59:20.270Z,97.18
2018-12-31T01:01:50.839Z,97.03
2018-12-31T01:04:21.348Z,96.76
2018-12-31T01:06:51.857Z,96.60
2018-12-31T01:09:22.488Z,96.76
2018-12-31T01:11:53.069Z,96.94
2018-12-31T01:14:23.651Z,96.93
2018-12-31T01:16:54.280Z,96.84
2018-12-31T01:19:24.815Z,96.98
2018-12-31T01:21:55.344Z,97.20
2018-12-31T01:24:25.963Z,97.15
2018-12-31T01:26:56.517Z,97.00
2018-12-31T01:29:27.066Z,97.03
2018-12-31T01:31:57.601Z,97.01
2018-12-31T01:34:28.263Z,97.04
2018-12-31T01:36:58.773Z,97.09
2018-12-31T01:39:29.320Z,96.93
2018-12-31T01:41:59.851Z,97.00
2018-12-31T01:44:30.364Z,97.09
2018-12-31T01:47:00.940Z,97.15
2018-12-31T01:49:31.508Z,97.05
2018-12-31T01:52:02.034Z,96.86
2018-12-31T01:54:32.640Z,96.95
2018-12-31T01:57:03.247Z,96.89
2018-12-31T01:59:33.901Z,96.88
2018-12-31T02:02:04.523Z,96.87
2018-12-31T02:04:35.129Z,96.75
2018-12-31T02:07:05.658Z,96.71
2018-12-31T02:09:36.380Z,96.75
2018-12-31T02:12:06.901Z,96.82
2018-12-31T02:14:37.457Z,96.89
2018-12-31T02:17:08.092Z,96.80
2018-12-31T02:19:38.774Z,96.53
2018-12-31T02:22:09.369Z,96.56
2018-12-31T02:24:39.980Z,96.63
2018-12-31T02:27:10.620Z,96.48
2018-12-31T02:29:41.173Z,96.48
2018-12-31T02:32:11.717Z,96.54
2018-12-31T02:34:42.320Z,96.64
2018-12-31T02:37:13.144Z,96.68
2018-12-31T02:39:43.739Z,96.65
2018-12-31T02:42:14.244Z,96.65
2018-12-31T02:44:44.753Z,96.70
2018-12-31T02:47:15.333Z,96.74
2018-12-31T02:49:45.950Z,96.77
2018-12-31T02:52:16.564Z,96.84
2018-12-31T02:54:47.377Z,96.71
2018-12-31T02:57:17.956Z,96.62
2018-12-31T02:59:48.467Z,96.57
2018-12-31T03:02:19.054Z,96.54
2018-12-31T03:04:49.610Z,96.48
2018-12-31T03:07:20.137Z,96.47
2018-12-31T03:09:50.719Z,96.72
2018-12-31T03:12:21.217Z,96.88
2018-12-31T03:14:51.763Z,96.93
2018-12-31T03:17:22.304Z,96.93
2018-12-31T03:19:52.790Z,96.86
2018-12-31T03:22:23.316Z,96.95
2018-12-31T03:24:54.007Z,96.88
2018-12-31T03:27:24.515Z,96.86
2018-12-31T03:29:55.040Z,96.92
2018-12-31T03:32:25.651Z,96.92
2018-12-31T03:34:56.190Z,97.00
2018-12-31T03:37:26.675Z,97.10
2018-12-31T03:39:57.272Z,97.10
2018-12-31T03:42:27.805Z,97.24
2018-12-31T03:44:58.316Z,97.32
2018-12-31T03:47:28.857Z,97.37
2018-12-31T03:49:59.392Z,97.16
2018-12-31T03:52:29.891Z,97.29
2018-12-31T03:55:00.470Z,97.24
2018-12-31T03:57:31.016Z,97.28
2018-12-31T04:00:01.558Z,97.44
2018-12-31T04:02:32.119Z,97.41
2018-12-31T04:05:02.651Z,97.39
2018-12-31T04:07:33.212Z,97.52
2018-12-31T04:10:03.807Z,97.67
2018-12-31T04:12:34.340Z,97.67
2018-12-31T04:15:04.919Z,97.72
2018-12-31T04:17:35.497Z,97.67
2018-12-31T04:20:06.201Z,97.68
2018-12-31T04:22:40.039Z,97.69
2018-12-31T04:25:10.577Z,97.67
2018-12-31T04:27:41.151Z,97.62
2018-12-31T04:30:11.797Z,97.59
2018-12-31T04:32:42.288Z,97.61
2018-12-31T04:35:12.849Z,97.62
2018-12-31T04:37:43.427Z,97.69
2018-12-31T04:40:13.965Z,97.69
2018-12-31T04:42:44.458Z,97.70
2018-12-31T04:45:15.008Z,97.81
2018-12-31T04:47:45.597Z,97.93
2018-12-31T04:50:16.253Z,97.90
2018-12-31T04:52:46.833Z,97.78
2018-12-31T04:55:17.358Z,97.71
2018-12-31T04:57:47.866Z,97.72
2018-12-31T05:00:18.476Z,97.64
2018-12-31T05:02:49.155Z,97.69
2018-12-31T05:05:19.711Z,97.77
2018-12-31T05:07:50.334Z,97.77
2018-12-31T05:10:20.911Z,97.81
2018-12-31T05:12:51.475Z,97.84
2018-12-31T05:15:22.259Z,97.85
2018-12-31T05:17:52.902Z,97.82
2018-12-31T05:20:23.483Z,97.79
2018-12-31T05:22:54.937Z,97.80
2018-12-31T05:25:25.572Z,97.72
2018-12-31T05:27:56.192Z,97.69
2018-12-31T05:30:26.784Z,97.64
2018-12-31T05:32:57.496Z,97.67
2018-12-31T05:35:28.181Z,97.63
2018-12-31T05:37:58.976Z,97.60
2018-12-31T05:40:29.630Z,97.60
2018-12-31T05:43:00.416Z,97.59
2018-12-31T05:45:31.187Z,97.54
2018-12-31T05:48:01.839Z,97.56
2018-12-31T05:50:32.503Z,97.47
2018-12-31T05:53:03.151Z,97.50
2018-12-31T05:55:33.792Z,97.47
2018-12-31T05:58:04.858Z,97.40
2018-12-31T06:00:36.261Z,97.39
2018-12-31T06:03:06.853Z,97.38
2018-12-31T06:05:37.487Z,97.34
2018-12-31T06:08:08.096Z,97.35
2018-12-31T06:10:38.651Z,97.36
2018-12-31T06:13:09.249Z,97.19
2018-12-31T06:15:39.904Z,97.16
2018-12-31T06:18:10.500Z,97.21
2018-12-31T06:20:41.120Z,97.21
2018-12-31T06:23:11.966Z,97.43
2018-12-31T06:25:42.488Z,97.41
2018-12-31T06:28:13.169Z,97.30
2018-12-31T06:30:43.956Z,97.25
2018-12-31T06:33:14.635Z,97.26
2018-12-31T06:35:45.267Z,97.32
2018-12-31T06:38:15.780Z,97.42
2018-12-31T06:40:46.262Z,97.36
2018-12-31T06:43:16.739Z,97.39
2018-12-31T06:45:47.271Z,97.30
2018-12-31T06:48:17.746Z,97.30
2018-12-31T06:50:48.239Z,97.33
2018-12-31T06:53:19.017Z,97.35
2018-12-31T06:55:49.512Z,97.30
2018-12-31T06:58:19.966Z,97.28
2018-12-31T07:00:50.524Z,97.36
2018-12-31T07:03:20.979Z,97.38
2018-12-31T07:05:51.457Z,97.36
2018-12-31T07:08:21.981Z,97.34
2018-12-31T07:10:52.467Z,97.27
2018-12-31T07:13:23.007Z,97.32
2018-12-31T07:15:53.534Z,97.25
2018-12-31T07:18:24.012Z,97.23
2018-12-31T07:20:54.455Z,97.27
2018-12-31T07:23:24.998Z,97.36
2018-12-31T07:25:55.656Z,97.47
2018-12-31T07:28:26.133Z,97.55
2018-12-31T07:30:56.657Z,97.50
2018-12-31T07:33:27.165Z,97.49
2018-12-31T07:35:57.669Z,97.49
2018-12-31T07:38:28.179Z,97.49
2018-12-31T07:40:58.704Z,97.48
2018-12-31T07:43:29.045Z,97.52
2018-12-31T07:45:59.575Z,97.50
2018-12-31T07:48:29.994Z,97.50
2018-12-31T07:51:00.452Z,97.59
2018-12-31T07:53:31.028Z,97.57
2018-12-31T07:56:01.440Z,97.48
2018-12-31T07:58:31.938Z,97.55
2018-12-31T08:01:02.484Z,97.57
2018-12-31T08:03:32.930Z,97.56
2018-12-31T08:06:03.449Z,97.66
2018-12-31T08:08:33.956Z,97.64
2018-12-31T08:11:04.468Z,97.62
2018-12-31T08:13:34.998Z,97.67
2018-12-31T08:16:05.595Z,97.74
2018-12-31T08:18:36.098Z,97.71
2018-12-31T08:21:06.581Z,97.69
2018-12-31T08:23:37.113Z,97.65
2018-12-31T08:26:09.220Z,97.62
2018-12-31T08:28:39.671Z,97.42
2018-12-31T08:31:10.218Z,97.52
2018-12-31T08:33:40.702Z,97.60
2018-12-31T08:36:11.199Z,97.66
2018-12-31T08:38:41.722Z,97.73
2018-12-31T08:41:12.196Z,97.69
2018-12-31T08:43:42.694Z,97.72
2018-12-31T08:46:13.288Z,97.70
2018-12-31T08:48:43.779Z,97.73
2018-12-31T08:51:14.261Z,97.70
2018-12-31T08:53:44.829Z,97.68
2018-12-31T08:56:15.319Z,97.50
2018-12-31T08:58:45.797Z,97.52
2018-12-31T09:01:16.314Z,97.63
2018-12-31T09:03:46.770Z,97.61
2018-12-31T09:06:17.275Z,97.70
2018-12-31T09:08:47.803Z,97.86
2018-12-31T09:11:18.292Z,97.83
2018-12-31T09:13:48.808Z,97.84
2018-12-31T09:16:19.426Z,97.79
2018-12-31T09:18:49.892Z,97.88
2018-12-31T09:21:20.357Z,97.97
2018-12-31T09:23:50.951Z,98.04
2018-12-31T09:26:21.421Z,98.28
2018-12-31T09:28:51.897Z,98.33
2018-12-31T09:31:22.420Z,98.34
2018-12-31T09:33:52.945Z,98.41
2018-12-31T09:36:23.429Z,98.46
2018-12-31T09:38:53.972Z,98.50
2018-12-31T09:41:24.390Z,98.58
2018-12-31T09:43:54.895Z,98.52
2018-12-31T09:46:25.438Z,98.25
2018-12-31T09:48:55.891Z,97.84
2018-12-31T09:51:26.392Z,97.81
2018-12-31T09:53:56.856Z,97.88
2018-12-31T09:56:27.329Z,97.80
2018-12-31T09:58:57.845Z,97.66
2018-12-31T10:01:28.442Z,97.43
2018-12-31T10:03:58.841Z,97.54
2018-12-31T10:06:29.311Z,97.79
2018-12-31T10:08:59.897Z,97.85
2018-12-31T10:11:30.304Z,97.98
2018-12-31T10:14:00.692Z,97.91
2018-12-31T10:16:31.258Z,97.99
2018-12-31T10:19:01.708Z,98.03
2018-12-31T10:21:32.214Z,98.05
2018-12-31T10:24:02.771Z,98.04
2018-12-31T10:26:33.252Z,98.06
2018-12-31T10:29:03.776Z,98.03
2018-12-31T10:31:34.348Z,97.88
2018-12-31T10:34:04.896Z,97.82
2018-12-31T10:36:35.385Z,97.83
2018-12-31T10:39:07.851Z,97.73
2018-12-31T10:41:38.359Z,97.42
2018-12-31T10:44:08.853Z,97.17
2018-12-31T10:46:39.354Z,97.35
2018-12-31T10:49:09.861Z,97.22
2018-12-31T10:51:40.399Z,97.30
2018-12-31T10:54:10.933Z,97.21
2018-12-31T10:56:43.136Z,97.21
2018-12-31T10:59:13.546Z,97.07
2018-12-31T11:01:44.131Z,96.77
2018-12-31T11:04:14.599Z,97.15
2018-12-31T11:06:45.083Z,97.15
2018-12-31T11:09:15.603Z,97.34
2018-12-31T11:11:46.094Z,97.54
2018-12-31T11:14:16.574Z,97.56
2018-12-31T11:16:47.178Z,97.71
2018-12-31T11:19:17.661Z,97.76
2018-12-31T11:21:48.153Z,97.82
2018-12-31T11:24:18.760Z,97.92
2018-12-31T11:26:49.211Z,97.94
2018-12-31T11:29:19.695Z,97.87
2018-12-31T11:31:50.207Z,97.72
2018-12-31T11:34:20.813Z,97.18
2018-12-31T11:36:51.240Z,96.90
2018-12-31T11:39:21.797Z,96.92
2018-12-31T11:41:52.279Z,97.14
2018-12-31T11:44:22.773Z,97.23
2018-12-31T11:46:53.284Z,97.39
2018-12-31T11:49:23.684Z,97.14
2018-12-31T11:51:54.170Z,97.09
2018-12-31T11:54:24.678Z,97.08
2018-12-31T11:56:55.168Z,97.20
2018-12-31T11:59:25.671Z,96.62
2018-12-31T12:01:56.187Z,96.62
2018-12-31T12:04:26.729Z,97.05
2018-12-31T12:06:57.230Z,97.10
2018-12-31T12:09:28.183Z,97.09
2018-12-31T12:11:58.672Z,96.79
2018-12-31T12:14:29.255Z,97.11
2018-12-31T12:16:59.729Z,97.30
2018-12-31T12:19:30.195Z,97.45
2018-12-31T12:22:00.799Z,97.42
2018-12-31T12:24:31.297Z,97.50
2018-12-31T12:27:02.065Z,97.87
2018-12-31T12:29:32.679Z,97.93
2018-12-31T12:32:03.232Z,97.70
2018-12-31T12:34:33.704Z,97.78
2018-12-31T22:02:56.846Z,87.91
2018-12-31T22:05:22.557Z,88.03
2018-12-31T22:07:53.197Z,88.09
2018-12-31T22:10:23.779Z,88.76
2018-12-31T22:12:54.537Z,88.85
2018-12-31T22:15:25.104Z,89.44
2018-12-31T22:17:55.723Z,89.62
2018-12-31T22:20:26.290Z,89.62
2018-12-31T22:22:56.878Z,89.39
2018-12-31T22:25:27.419Z,89.75
2018-12-31T22:27:57.961Z,90.05
2018-12-31T22:30:28.553Z,89.73
2018-12-31T22:32:59.084Z,89.87
2018-12-31T22:35:29.961Z,89.63
2018-12-31T22:38:00.593Z,89.69
2018-12-31T22:40:31.141Z,89.78
2018-12-31T22:43:02.230Z,89.46
2018-12-31T22:45:32.804Z,89.60
2018-12-31T22:48:03.362Z,88.76
2018-12-31T22:50:33.920Z,88.40
2018-12-31T22:53:04.495Z,88.37
2018-12-31T22:55:35.059Z,87.69
2018-12-31T22:58:05.686Z,87.56
2018-12-31T23:00:37.414Z,87.85
2018-12-31T23:03:08.010Z,88.10
2018-12-31T23:05:39.958Z,87.83
2018-12-31T23:08:10.545Z,87.95
2018-12-31T23:10:41.184Z,87.03
2018-12-31T23:13:11.700Z,87.18
2018-12-31T23:15:42.292Z,86.70
2018-12-31T23:18:12.909Z,86.56
2018-12-31T23:20:43.833Z,86.73
2018-12-31T23:23:14.640Z,86.77
2018-12-31T23:25:45.186Z,87.07
2018-12-31T23:28:15.758Z,87.53
2018-12-31T23:30:46.329Z,88.33
2018-12-31T23:33:17.003Z,88.71
2018-12-31T23:35:47.591Z,88.62
2018-12-31T23:38:18.388Z,89.05
2018-12-31T23:40:48.961Z,89.38
2018-12-31T23:43:19.607Z,89.92
2018-12-31T23:45:50.793Z,90.13
2018-12-31T23:48:21.404Z,90.06
2018-12-31T23:50:52.008Z,89.77
2018-12-31T23:53:22.629Z,89.73
2018-12-31T23:55:53.214Z,89.74
2018-12-31T23:58:23.764Z,89.37
